Time;durP1;ratioP1;P1;durP2;ratioP2;P2;SDS_P1;SDS_P2;PMS_P1;PMS_P2;Temp;Humidity;BMP_temperature;BMP_pressure;BME280_temperature;BME280_humidity;BME280_pressure;Samples;Min_cycle;Max_cycle;Signal;HPM_P1;HPM_P2
2021/12/26 00:00:54;;;;;;;2.35;0.50;;;-4.20;99.90;;;;;;5028060;28;20083;-83
2021/12/26 00:03:24;;;;;;;1.63;0.40;;;-4.20;99.90;;;;;;5027998;28;20037;-83
2021/12/26 00:05:51;;;;;;;1.10;0.30;;;-4.20;99.90;;;;;;5028212;28;20440;-84
2021/12/26 00:08:17;;;;;;;1.92;0.30;;;-4.10;99.90;;;;;;5028156;28;20040;-83
2021/12/26 00:10:43;;;;;;;2.05;0.30;;;-4.20;99.90;;;;;;5028099;28;20037;-84
2021/12/26 00:13:08;;;;;;;1.88;0.30;;;-4.20;99.90;;;;;;5044416;28;20036;-84
2021/12/26 00:15:34;;;;;;;1.50;0.20;;;-4.30;99.90;;;;;;5027978;28;20040;-83
2021/12/26 00:18:00;;;;;;;1.48;0.30;;;-4.20;99.90;;;;;;5027916;28;20393;-84
2021/12/26 00:20:26;;;;;;;2.50;0.20;;;-4.20;99.90;;;;;;5044345;28;20033;-83
2021/12/26 00:22:52;;;;;;;1.35;0.30;;;-4.30;99.90;;;;;;5027944;28;20064;-83
2021/12/26 00:25:18;;;;;;;1.15;0.20;;;-4.30;99.90;;;;;;5027866;28;20033;-83
2021/12/26 00:27:44;;;;;;;1.30;0.30;;;-4.30;99.90;;;;;;5027972;28;20030;-83
2021/12/26 00:30:16;;;;;;;0.90;0.30;;;-4.30;99.90;;;;;;5027450;28;20025;-83
2021/12/26 00:32:42;;;;;;;1.02;0.30;;;-4.30;99.90;;;;;;5027759;28;20046;-83
2021/12/26 00:35:10;;;;;;;1.80;0.20;;;-4.30;99.90;;;;;;5027905;28;20029;-83
2021/12/26 00:37:36;;;;;;;0.93;0.20;;;-4.30;99.90;;;;;;5027953;28;20030;-83
2021/12/26 00:40:03;;;;;;;0.88;0.22;;;-4.30;99.90;;;;;;5045593;28;20029;-83
2021/12/26 00:42:29;;;;;;;2.13;0.28;;;-4.30;99.90;;;;;;5031161;28;20029;-83
2021/12/26 00:44:54;;;;;;;1.70;0.40;;;-4.30;99.90;;;;;;5047627;28;20035;-83
2021/12/26 00:47:20;;;;;;;0.77;0.20;;;-4.30;99.90;;;;;;5047415;28;20033;-83
2021/12/26 00:49:45;;;;;;;1.30;0.30;;;-4.30;99.90;;;;;;5047631;28;20032;-83
2021/12/26 00:52:11;;;;;;;1.38;0.20;;;-4.30;99.90;;;;;;5047789;28;20045;-84
2021/12/26 00:54:37;;;;;;;0.90;0.20;;;-4.40;99.90;;;;;;5047644;28;20033;-83
2021/12/26 00:57:04;;;;;;;1.88;0.35;;;-4.40;99.90;;;;;;5047459;28;20036;-83
2021/12/26 00:59:30;;;;;;;1.48;0.30;;;-4.40;99.90;;;;;;5047592;28;20033;-83
2021/12/26 01:01:56;;;;;;;2.20;0.20;;;-4.40;99.90;;;;;;5047419;28;20029;-83
2021/12/26 01:04:23;;;;;;;1.30;0.30;;;-4.40;99.90;;;;;;5047607;28;20059;-83
2021/12/26 01:06:50;;;;;;;1.23;0.30;;;-4.40;99.90;;;;;;5047475;28;20045;-83
2021/12/26 01:09:21;;;;;;;2.35;0.20;;;-4.30;99.90;;;;;;5047538;28;20408;-83
2021/12/26 01:11:52;;;;;;;0.57;0.20;;;-4.30;99.90;;;;;;5047333;28;20029;-83
2021/12/26 01:14:27;;;;;;;1.20;0.27;;;-4.30;99.90;;;;;;5048064;28;20040;-84
2021/12/26 01:17:09;;;;;;;1.10;0.30;;;-4.30;99.90;;;;;;5048275;28;20033;-83
2021/12/26 01:19:46;;;;;;;1.52;0.30;;;-4.40;99.90;;;;;;5049566;28;20025;-83
2021/12/26 01:22:14;;;;;;;1.35;0.30;;;-4.40;99.90;;;;;;5051092;28;20185;-83
2021/12/26 01:24:43;;;;;;;1.00;0.25;;;-4.40;99.90;;;;;;5050975;28;20041;-82
2021/12/26 01:27:09;;;;;;;1.67;0.30;;;-4.50;99.90;;;;;;5050971;28;20032;-83
2021/12/26 01:29:36;;;;;;;1.45;0.30;;;-4.50;99.90;;;;;;5050719;28;20025;-83
2021/12/26 01:32:04;;;;;;;0.85;0.20;;;-4.40;99.90;;;;;;5050350;28;20076;-83
2021/12/26 01:34:49;;;;;;;1.30;0.15;;;-4.40;99.90;;;;;;5053544;28;20029;-83
2021/12/26 01:37:36;;;;;;;1.20;0.28;;;-4.40;99.90;;;;;;5050660;28;20428;-83
2021/12/26 01:40:18;;;;;;;1.27;0.30;;;-4.40;99.90;;;;;;5030800;28;20025;-83
2021/12/26 01:43:01;;;;;;;2.77;0.30;;;-4.40;99.90;;;;;;5016159;28;20428;-83
2021/12/26 01:45:38;;;;;;;1.50;0.30;;;-4.50;99.90;;;;;;5032172;28;20276;-83
2021/12/26 01:48:06;;;;;;;0.90;0.20;;;-4.40;99.90;;;;;;5030598;28;20061;-84
2021/12/26 01:50:43;;;;;;;1.08;0.40;;;-4.40;99.90;;;;;;5015016;28;20022;-83
2021/12/26 01:53:10;;;;;;;;;;;-4.40;99.90;;;;;;5014812;28;20037;-83
2021/12/26 01:58:06;;;;;;;1.52;0.25;;;-4.40;99.90;;;;;;5030121;28;20436;-83
2021/12/26 02:00:32;;;;;;;0.90;0.20;;;-4.40;99.90;;;;;;5013842;28;20056;-83
2021/12/26 02:02:58;;;;;;;1.80;0.20;;;-4.50;99.90;;;;;;5013835;28;20120;-83
2021/12/26 02:05:24;;;;;;;0.98;0.20;;;-4.50;99.90;;;;;;5030155;28;20374;-83
2021/12/26 02:07:55;;;;;;;0.73;0.20;;;-4.50;99.90;;;;;;5014456;28;20025;-83
2021/12/26 02:10:20;;;;;;;1.33;0.30;;;-4.50;99.90;;;;;;5013855;28;20036;-83
2021/12/26 02:12:46;;;;;;;1.95;0.35;;;-4.50;99.90;;;;;;5030181;28;20056;-83
2021/12/26 02:15:12;;;;;;;1.30;0.30;;;-4.50;99.90;;;;;;5013788;28;20041;-84
2021/12/26 02:17:47;;;;;;;1.60;0.30;;;-4.60;99.90;;;;;;5014747;28;20037;-83
2021/12/26 02:20:15;;;;;;;1.75;0.38;;;-4.60;99.90;;;;;;5013836;28;20124;-84
2021/12/26 02:22:45;;;;;;;1.75;0.30;;;-4.50;99.90;;;;;;5029873;28;20043;-83
2021/12/26 02:25:29;;;;;;;2.13;0.40;;;-4.50;99.90;;;;;;5029552;28;20047;-83
2021/12/26 02:27:55;;;;;;;2.53;0.30;;;-4.50;99.90;;;;;;5013400;28;20029;-84
2021/12/26 02:30:22;;;;;;;2.20;0.38;;;-4.50;99.90;;;;;;5012799;28;20049;-83
2021/12/26 02:32:52;;;;;;;2.10;0.30;;;-4.50;99.90;;;;;;5029479;28;20112;-83
2021/12/26 02:35:22;;;;;;;2.60;0.20;;;-4.60;99.90;;;;;;5029704;28;20560;-83
2021/12/26 02:37:48;;;;;;;1.10;0.27;;;-4.60;99.90;;;;;;5013152;28;20482;-83
2021/12/26 02:40:14;;;;;;;2.65;0.20;;;-4.70;99.90;;;;;;5048983;28;20272;-83
2021/12/26 02:42:40;;;;;;;1.05;0.30;;;-4.60;99.90;;;;;;5049189;28;20056;-83
2021/12/26 02:45:06;;;;;;;2.33;0.20;;;-4.60;99.90;;;;;;5049395;28;20040;-83
2021/12/26 02:47:36;;;;;;;2.45;0.55;;;-4.60;99.90;;;;;;5032584;28;20032;-83
2021/12/26 02:50:06;;;;;;;1.60;0.30;;;-4.60;99.90;;;;;;5049128;28;20055;-84
2021/12/26 02:52:31;;;;;;;1.48;0.30;;;-4.60;99.90;;;;;;5032825;28;20051;-84
2021/12/26 02:54:59;;;;;;;1.20;0.30;;;-4.60;99.90;;;;;;5049232;28;20568;-83
2021/12/26 02:57:26;;;;;;;1.60;0.22;;;-4.70;99.90;;;;;;5049057;28;20025;-83
2021/12/26 02:59:52;;;;;;;1.53;0.30;;;-4.70;99.90;;;;;;5048960;28;20041;-83
2021/12/26 03:02:18;;;;;;;0.95;0.30;;;-4.60;99.90;;;;;;5049088;28;20032;-83
2021/12/26 03:04:44;;;;;;;1.40;0.30;;;-4.70;99.90;;;;;;5048924;28;20065;-83
2021/12/26 03:07:10;;;;;;;1.35;0.30;;;-4.70;99.90;;;;;;5049030;28;20032;-83
2021/12/26 03:09:45;;;;;;;1.02;0.30;;;-4.70;99.90;;;;;;5049144;28;20029;-84
2021/12/26 03:12:11;;;;;;;5.72;0.40;;;-4.70;99.90;;;;;;5048810;28;20083;-82
2021/12/26 03:14:38;;;;;;;1.05;0.20;;;-4.70;99.90;;;;;;5048849;28;20021;-83
2021/12/26 03:17:05;;;;;;;1.23;0.30;;;-4.70;99.90;;;;;;5048638;28;20032;-83
2021/12/26 03:19:36;;;;;;;1.23;0.20;;;-4.70;99.90;;;;;;5048583;28;20074;-82
2021/12/26 03:22:02;;;;;;;2.42;0.30;;;-4.80;99.90;;;;;;5048616;28;20093;-83
2021/12/26 03:24:28;;;;;;;1.40;0.30;;;-4.80;99.90;;;;;;5048631;28;20041;-83
2021/12/26 03:27:05;;;;;;;1.10;0.22;;;-4.70;99.90;;;;;;5048387;28;20035;-83
2021/12/26 03:29:32;;;;;;;0.88;0.20;;;-4.80;99.90;;;;;;5048514;28;20063;-84
2021/12/26 03:31:59;;;;;;;1.50;0.20;;;-4.80;99.90;;;;;;5048527;28;20072;-84
2021/12/26 03:34:24;;;;;;;0.75;0.20;;;-4.80;99.90;;;;;;5048344;28;20033;-84
2021/12/26 03:36:52;;;;;;;0.68;0.20;;;-4.80;99.90;;;;;;5048342;28;20040;-83
2021/12/26 03:39:21;;;;;;;1.92;0.32;;;-4.80;99.90;;;;;;5036695;28;20272;-84
2021/12/26 03:41:47;;;;;;;1.40;0.30;;;-4.80;99.90;;;;;;5028251;28;20056;-83
2021/12/26 03:44:13;;;;;;;1.02;0.30;;;-4.80;99.90;;;;;;5028599;28;20045;-83
2021/12/26 03:46:39;;;;;;;1.65;0.40;;;-4.80;99.90;;;;;;5028419;28;20091;-83
2021/12/26 03:49:06;;;;;;;1.38;0.25;;;-4.80;99.90;;;;;;5045087;28;20021;-83
2021/12/26 03:51:34;;;;;;;1.23;0.30;;;-4.90;99.90;;;;;;5028415;28;20025;-83
2021/12/26 03:54:03;;;;;;;0.75;0.20;;;-4.80;99.90;;;;;;5028480;28;20037;-83
2021/12/26 03:56:31;;;;;;;1.20;0.30;;;-4.90;99.90;;;;;;5028359;28;20029;-83
2021/12/26 03:59:14;;;;;;;2.15;0.20;;;-4.90;99.90;;;;;;5014215;28;20040;-83
2021/12/26 04:01:40;;;;;;;0.80;0.20;;;-4.90;99.90;;;;;;5045059;28;20022;-83
2021/12/26 04:04:06;;;;;;;1.80;0.23;;;-4.80;99.90;;;;;;5028348;28;20048;-83
2021/12/26 04:06:32;;;;;;;0.70;0.20;;;-4.90;99.90;;;;;;5044517;28;20029;-83
2021/12/26 04:08:57;;;;;;;1.95;0.20;;;-4.90;99.90;;;;;;5044741;28;20037;-83
2021/12/26 04:11:24;;;;;;;1.25;0.20;;;-4.90;99.90;;;;;;5044731;28;20497;-83
2021/12/26 04:13:50;;;;;;;1.10;0.20;;;-4.80;99.90;;;;;;5028273;28;20034;-83
2021/12/26 04:16:15;;;;;;;1.20;0.20;;;-4.80;99.90;;;;;;5028247;28;20026;-82
2021/12/26 04:18:41;;;;;;;1.13;0.20;;;-4.80;99.90;;;;;;5028196;28;20033;-83
2021/12/26 04:21:08;;;;;;;0.93;0.20;;;-4.80;99.90;;;;;;5029429;28;20104;-84
2021/12/26 04:23:40;;;;;;;1.00;0.20;;;-4.90;99.90;;;;;;5046723;28;20041;-83
2021/12/26 04:26:06;;;;;;;2.47;0.20;;;-4.90;99.90;;;;;;5047207;28;20033;-83
2021/12/26 04:28:52;;;;;;;1.83;0.30;;;-4.80;99.90;;;;;;5045132;28;20029;-83
2021/12/26 04:31:18;;;;;;;1.85;0.20;;;-4.90;99.90;;;;;;4984065;28;20027;-83
2021/12/26 04:33:46;;;;;;;3.08;0.30;;;-4.90;99.90;;;;;;4983963;28;20078;-83
2021/12/26 04:36:13;;;;;;;2.23;0.20;;;-4.90;99.90;;;;;;4983937;28;20042;-84
2021/12/26 04:38:40;;;;;;;2.15;0.20;;;-4.90;99.90;;;;;;5006565;28;20133;-83
2021/12/26 04:41:06;;;;;;;2.88;0.20;;;-4.80;99.90;;;;;;5023387;28;20030;-84
2021/12/26 04:43:35;;;;;;;1.08;0.20;;;-5.00;99.90;;;;;;5023508;28;20046;-84
2021/12/26 04:46:27;;;;;;;1.48;0.30;;;-5.00;99.90;;;;;;5021360;28;20037;-84
2021/12/26 04:49:03;;;;;;;1.67;0.30;;;-4.90;99.90;;;;;;5006724;28;20044;-83
2021/12/26 04:51:29;;;;;;;1.02;0.20;;;-4.90;99.90;;;;;;5006826;28;20108;-83
2021/12/26 04:53:58;;;;;;;2.20;0.30;;;-4.90;99.90;;;;;;5007295;28;20030;-84
2021/12/26 04:56:24;;;;;;;1.80;0.20;;;-4.90;99.90;;;;;;5010669;28;20049;-83
2021/12/26 04:58:50;;;;;;;1.17;0.20;;;-5.00;99.90;;;;;;5010547;28;20029;-83
2021/12/26 05:01:16;;;;;;;1.33;0.25;;;-5.00;99.90;;;;;;5010679;28;20048;-83
2021/12/26 05:03:42;;;;;;;0.87;0.20;;;-5.00;99.90;;;;;;5010467;28;20038;-83
2021/12/26 05:06:08;;;;;;;0.90;0.20;;;-4.90;99.90;;;;;;5010368;28;20057;-83
2021/12/26 05:08:33;;;;;;;2.72;0.68;;;-4.90;99.90;;;;;;5029974;28;20041;-84
2021/12/26 05:10:59;;;;;;;1.43;0.30;;;-4.90;99.90;;;;;;5051173;28;20051;-83
2021/12/26 05:13:25;;;;;;;1.50;0.30;;;-4.90;99.90;;;;;;5050940;28;20032;-83
2021/12/26 05:15:51;;;;;;;1.00;0.23;;;-4.90;99.90;;;;;;5050988;28;20036;-83
2021/12/26 05:18:17;;;;;;;1.93;0.20;;;-4.90;99.90;;;;;;5050907;28;20487;-83
2021/12/26 05:20:44;;;;;;;1.03;0.30;;;-4.90;99.90;;;;;;5051140;28;20025;-83
2021/12/26 05:23:10;;;;;;;0.85;0.20;;;-4.90;99.90;;;;;;5050882;28;20052;-83
2021/12/26 05:25:36;;;;;;;0.80;0.20;;;-4.90;99.90;;;;;;5050634;28;20048;-83
2021/12/26 05:28:03;;;;;;;1.63;0.30;;;-4.90;99.90;;;;;;5050788;28;20044;-83
2021/12/26 05:30:30;;;;;;;1.60;0.30;;;-4.80;99.90;;;;;;5050706;28;20029;-83
2021/12/26 05:33:13;;;;;;;0.93;0.20;;;-4.80;99.90;;;;;;5053131;28;20048;-83
2021/12/26 05:35:39;;;;;;;1.13;0.20;;;-4.80;99.90;;;;;;5033866;28;20025;-84
2021/12/26 05:38:06;;;;;;;1.83;0.20;;;-4.80;99.90;;;;;;5048620;28;20033;-83
2021/12/26 05:40:33;;;;;;;1.67;0.30;;;-4.80;99.90;;;;;;5047223;28;20026;-83
2021/12/26 05:42:58;;;;;;;0.60;0.20;;;-4.70;99.90;;;;;;5046999;28;20044;-83
2021/12/26 05:45:24;;;;;;;1.10;0.20;;;-4.70;99.90;;;;;;5030875;28;20029;-83
2021/12/26 05:48:11;;;;;;;0.85;0.25;;;-4.60;99.90;;;;;;5033444;28;20128;-84
2021/12/26 05:50:37;;;;;;;1.37;0.20;;;-4.60;99.90;;;;;;5030305;28;20055;-83
2021/12/26 05:53:04;;;;;;;1.05;0.20;;;-4.60;99.90;;;;;;5030452;28;20029;-83
2021/12/26 05:55:31;;;;;;;0.65;0.10;;;-4.60;99.90;;;;;;5046926;28;20045;-83
2021/12/26 05:57:57;;;;;;;2.78;0.30;;;-4.50;99.90;;;;;;5030240;28;20039;-83
2021/12/26 06:00:23;;;;;;;1.40;0.27;;;-4.50;99.90;;;;;;5046712;28;20036;-83
2021/12/26 06:02:57;;;;;;;0.73;0.20;;;-4.40;99.90;;;;;;5047861;28;20056;-83
2021/12/26 06:05:22;;;;;;;1.08;0.20;;;-4.40;99.90;;;;;;5030129;28;20033;-83
2021/12/26 06:07:49;;;;;;;0.80;0.15;;;-4.40;99.90;;;;;;5030023;28;20071;-83
2021/12/26 06:10:15;;;;;;;1.65;0.20;;;-4.30;99.90;;;;;;5030006;28;20036;-83
2021/12/26 06:12:41;;;;;;;0.95;0.20;;;-4.30;99.90;;;;;;5030203;28;20033;-83
2021/12/26 06:15:07;;;;;;;0.60;0.20;;;-4.30;99.90;;;;;;5046362;28;20052;-82
2021/12/26 06:17:35;;;;;;;2.95;0.30;;;-4.30;99.90;;;;;;5023786;28;20026;-82
2021/12/26 06:20:20;;;;;;;2.80;0.20;;;-4.20;99.90;;;;;;5020422;28;20048;-82
2021/12/26 06:23:05;;;;;;;1.20;0.20;;;-4.20;99.90;;;;;;5026159;28;20371;-82
2021/12/26 06:25:56;;;;;;;0.68;0.20;;;-4.10;99.90;;;;;;5027350;28;20084;-82
2021/12/26 06:28:50;;;;;;;2.28;0.22;;;-4.10;99.90;;;;;;5009722;28;20079;-81
2021/12/26 06:31:34;;;;;;;0.90;0.20;;;-4.00;99.90;;;;;;4947067;29;20119;-82
2021/12/26 06:34:18;;;;;;;0.70;0.20;;;-4.00;99.90;;;;;;4947714;29;20070;-83
2021/12/26 06:37:19;;;;;;;1.20;0.30;;;-4.00;99.90;;;;;;4885047;29;20044;-83
2021/12/26 06:40:07;;;;;;;0.90;0.20;;;-4.00;99.90;;;;;;4978010;28;20050;-82
2021/12/26 06:42:51;;;;;;;1.33;0.30;;;-3.90;99.90;;;;;;4986924;28;20058;-82
2021/12/26 06:45:35;;;;;;;1.33;0.28;;;-3.90;99.90;;;;;;4985524;28;20046;-82
2021/12/26 06:48:20;;;;;;;2.80;0.43;;;-3.90;99.90;;;;;;4979870;28;20049;-82
2021/12/26 06:50:47;;;;;;;2.33;0.30;;;-3.80;99.90;;;;;;4969462;28;20027;-82
2021/12/26 06:53:13;;;;;;;1.27;0.20;;;-3.80;99.90;;;;;;4969630;28;20430;-82
2021/12/26 06:55:41;;;;;;;0.85;0.30;;;-3.70;99.90;;;;;;4969158;28;20039;-82
2021/12/26 06:58:10;;;;;;;0.90;0.20;;;-3.70;99.90;;;;;;4985515;28;20026;-82
2021/12/26 07:00:36;;;;;;;0.87;0.20;;;-3.70;99.90;;;;;;4968976;28;20030;-82
2021/12/26 07:03:02;;;;;;;1.25;0.20;;;-3.70;99.90;;;;;;4969295;28;20043;-82
2021/12/26 07:05:29;;;;;;;1.20;0.32;;;-3.70;99.90;;;;;;4969089;28;20034;-82
2021/12/26 07:08:08;;;;;;;0.98;0.20;;;-3.60;99.90;;;;;;4994439;28;20044;-82
2021/12/26 07:10:36;;;;;;;0.80;0.20;;;-3.60;99.90;;;;;;5048582;28;20036;-82
2021/12/26 07:13:02;;;;;;;1.33;0.30;;;-3.50;99.90;;;;;;5048698;28;20468;-82
2021/12/26 07:15:33;;;;;;;1.48;0.20;;;-3.50;99.90;;;;;;5048791;28;20096;-82
2021/12/26 07:18:00;;;;;;;1.63;0.30;;;-3.50;99.90;;;;;;5048420;28;20037;-82
2021/12/26 07:20:29;;;;;;;1.48;0.22;;;-3.50;99.90;;;;;;5032453;28;20091;-82
2021/12/26 07:23:24;;;;;;;0.43;0.10;;;-3.50;99.90;;;;;;5039645;28;20032;-82
2021/12/26 07:25:53;;;;;;;1.70;0.30;;;-3.40;99.90;;;;;;5048599;28;20029;-82
2021/12/26 07:28:20;;;;;;;1.00;0.20;;;-3.40;99.90;;;;;;5048503;28;20028;-82
2021/12/26 07:31:15;;;;;;;1.63;0.30;;;-3.40;99.90;;;;;;4984385;28;20046;-82
2021/12/26 07:33:42;;;;;;;0.82;0.17;;;-3.40;99.90;;;;;;4969063;28;20457;-82
2021/12/26 07:36:09;;;;;;;1.38;0.30;;;-3.30;99.90;;;;;;4968619;28;20034;-82
2021/12/26 07:38:51;;;;;;;1.83;0.30;;;-3.30;99.90;;;;;;4962865;29;20413;-82
2021/12/26 07:41:17;;;;;;;1.10;0.30;;;-3.30;99.90;;;;;;4949192;29;20503;-82
2021/12/26 07:43:45;;;;;;;1.95;0.30;;;-3.30;99.90;;;;;;4933625;29;20035;-82
2021/12/26 07:46:29;;;;;;;0.68;0.20;;;-3.30;99.90;;;;;;4951425;29;20062;-82
2021/12/26 07:48:59;;;;;;;1.77;0.20;;;-3.30;99.90;;;;;;4949240;29;20130;-82
2021/12/26 07:51:45;;;;;;;1.77;0.30;;;-3.30;99.90;;;;;;4951798;29;20051;-82
2021/12/26 07:54:29;;;;;;;1.98;0.35;;;-3.30;99.90;;;;;;4951956;29;20059;-83
2021/12/26 07:57:14;;;;;;;2.42;0.30;;;-3.30;99.90;;;;;;4951590;29;20158;-83
2021/12/26 07:59:58;;;;;;;1.08;0.30;;;-3.30;99.90;;;;;;4964570;28;20081;-83
2021/12/26 08:02:43;;;;;;;1.75;0.30;;;-3.30;99.90;;;;;;4954338;29;20077;-83
2021/12/26 08:05:27;;;;;;;2.53;0.40;;;-3.40;99.90;;;;;;4950865;29;20083;-82
2021/12/26 08:08:22;;;;;;;0.80;0.20;;;-3.40;99.90;;;;;;5007595;28;20052;-82
2021/12/26 08:10:48;;;;;;;1.30;0.30;;;-3.30;99.90;;;;;;5027073;28;20041;-82
2021/12/26 08:13:15;;;;;;;2.30;0.40;;;-3.40;99.90;;;;;;5043869;28;20029;-84
2021/12/26 08:15:40;;;;;;;1.25;0.30;;;-3.30;99.90;;;;;;5027034;28;20079;-85
2021/12/26 08:18:06;;;;;;;1.30;0.35;;;-3.30;99.90;;;;;;5043548;28;20116;-84
2021/12/26 08:20:32;;;;;;;1.30;0.20;;;-3.30;99.90;;;;;;5044040;28;20397;-84
2021/12/26 08:22:58;;;;;;;0.80;0.30;;;-3.30;99.90;;;;;;5027201;28;20037;-84
2021/12/26 08:25:24;;;;;;;2.65;0.40;;;-3.30;99.90;;;;;;5026940;28;20101;-85
2021/12/26 08:27:49;;;;;;;1.70;0.38;;;-3.30;99.90;;;;;;5043595;28;20426;-83
2021/12/26 08:30:15;;;;;;;1.00;0.20;;;-3.30;99.90;;;;;;5046177;28;20153;-84
2021/12/26 08:32:42;;;;;;;1.08;0.32;;;-3.30;99.90;;;;;;5047573;28;20080;-85
2021/12/26 08:35:08;;;;;;;1.73;0.30;;;-3.30;99.90;;;;;;5031505;28;20061;-85
2021/12/26 08:37:37;;;;;;;1.77;0.30;;;-3.20;99.90;;;;;;5031224;28;20088;-84
2021/12/26 08:40:04;;;;;;;3.40;0.50;;;-3.20;99.90;;;;;;5049173;28;20064;-84
2021/12/26 08:42:29;;;;;;;1.30;0.40;;;-3.20;99.90;;;;;;5050848;28;20104;-84
2021/12/26 08:44:57;;;;;;;1.60;0.30;;;-3.20;99.90;;;;;;5050555;28;20087;-84
2021/12/26 08:47:22;;;;;;;1.33;0.30;;;-3.20;99.90;;;;;;5050993;28;20036;-85
2021/12/26 08:49:48;;;;;;;1.65;0.32;;;-3.20;99.90;;;;;;5050927;28;20397;-84
2021/12/26 08:52:14;;;;;;;3.88;0.52;;;-3.20;99.90;;;;;;5050829;28;20039;-84
2021/12/26 08:54:39;;;;;;;4.63;0.90;;;-3.20;99.90;;;;;;5050873;28;20025;-83
2021/12/26 08:57:07;;;;;;;2.33;0.55;;;-3.10;99.90;;;;;;5050476;28;20378;-84
2021/12/26 08:59:33;;;;;;;1.23;0.30;;;-3.10;99.90;;;;;;5050175;28;20071;-83
2021/12/26 09:02:02;;;;;;;2.47;0.45;;;-3.10;99.90;;;;;;5050765;28;20032;-84
2021/12/26 09:04:28;;;;;;;2.45;0.50;;;-3.10;99.90;;;;;;5050681;28;20085;-83
2021/12/26 09:06:54;;;;;;;1.35;0.32;;;-3.10;99.90;;;;;;5050499;28;20044;-83
2021/12/26 09:09:20;;;;;;;1.30;0.35;;;-3.00;99.90;;;;;;5050458;28;20037;-84
2021/12/26 09:11:46;;;;;;;1.48;0.40;;;-3.00;99.90;;;;;;5050216;28;20075;-84
2021/12/26 09:14:11;;;;;;;1.27;0.30;;;-3.00;99.90;;;;;;5050175;28;20050;-84
2021/12/26 09:16:37;;;;;;;2.08;0.40;;;-3.00;99.90;;;;;;5050693;28;20036;-84
2021/12/26 09:19:04;;;;;;;1.17;0.30;;;-3.00;99.90;;;;;;5050418;28;20033;-84
2021/12/26 09:21:31;;;;;;;1.70;0.52;;;-3.00;99.90;;;;;;5050160;28;20526;-83
2021/12/26 09:23:56;;;;;;;2.25;0.40;;;-2.90;99.90;;;;;;5050531;28;20041;-83
2021/12/26 09:26:22;;;;;;;1.98;0.30;;;-2.90;99.90;;;;;;5050166;28;20036;-83
2021/12/26 09:28:49;;;;;;;1.27;0.40;;;-2.80;99.90;;;;;;5049622;28;20043;-83
2021/12/26 09:31:15;;;;;;;1.40;0.30;;;-2.80;99.90;;;;;;5049792;28;20460;-84
2021/12/26 09:33:41;;;;;;;1.13;0.30;;;-2.70;99.90;;;;;;5049986;28;20033;-84
2021/12/26 09:36:06;;;;;;;1.92;0.40;;;-2.70;99.90;;;;;;5049820;28;20475;-84
2021/12/26 09:38:32;;;;;;;2.22;0.32;;;-2.60;99.90;;;;;;5044042;28;20033;-84
2021/12/26 09:40:59;;;;;;;2.03;0.60;;;-2.50;99.90;;;;;;5047446;28;20041;-84
2021/12/26 09:43:26;;;;;;;2.42;0.43;;;-2.50;99.90;;;;;;5029588;28;20440;-85
2021/12/26 09:45:52;;;;;;;1.98;0.40;;;-2.40;99.90;;;;;;5013382;28;20037;-84
2021/12/26 09:48:18;;;;;;;1.48;0.50;;;-2.30;99.90;;;;;;5013514;28;20031;-85
2021/12/26 09:50:45;;;;;;;1.58;0.30;;;-2.30;99.90;;;;;;5013631;28;20029;-84
2021/12/26 09:53:11;;;;;;;3.85;0.50;;;-2.20;99.90;;;;;;5013242;28;20055;-84
2021/12/26 09:55:37;;;;;;;1.73;0.40;;;-2.10;99.90;;;;;;5029928;28;20095;-85
2021/12/26 09:58:03;;;;;;;1.25;0.40;;;-2.00;99.90;;;;;;5012940;28;20029;-85
2021/12/26 10:00:36;;;;;;;1.75;0.50;;;-1.90;99.90;;;;;;5013315;28;20033;-84
2021/12/26 10:03:22;;;;;;;2.55;0.50;;;-1.90;99.90;;;;;;5029377;28;20066;-85
2021/12/26 10:06:18;;;;;;;1.90;0.55;;;-1.80;99.90;;;;;;5029956;28;20045;-86
2021/12/26 10:08:58;;;;;;;2.38;0.40;;;-1.80;99.90;;;;;;5004667;28;20489;-85
2021/12/26 10:11:30;;;;;;;1.80;0.50;;;-1.70;99.90;;;;;;5029496;28;20033;-86
2021/12/26 10:14:02;;;;;;;2.10;0.50;;;-1.60;99.90;;;;;;5029389;28;20079;-86
2021/12/26 10:16:30;;;;;;;3.22;0.60;;;-1.60;99.90;;;;;;5013026;28;20453;-86
2021/12/26 10:18:57;;;;;;;2.38;0.50;;;-1.40;99.90;;;;;;5012959;28;20033;-86
2021/12/26 10:21:25;;;;;;;2.08;0.50;;;-1.40;99.90;;;;;;5013181;28;20037;-85
2021/12/26 10:23:53;;;;;;;2.40;0.68;;;-1.30;99.90;;;;;;5013092;28;20085;-86
2021/12/26 10:26:25;;;;;;;1.40;0.40;;;-1.20;99.90;;;;;;5013226;28;20072;-86
2021/12/26 10:29:08;;;;;;;1.92;0.50;;;-1.10;99.90;;;;;;5012550;28;20048;-86
2021/12/26 10:31:36;;;;;;;1.92;0.60;;;-1.10;99.90;;;;;;5012905;28;20128;-87
2021/12/26 10:34:01;;;;;;;3.22;0.50;;;-1.00;99.90;;;;;;5029233;28;20276;-86
2021/12/26 10:36:43;;;;;;;1.95;0.60;;;-0.90;99.90;;;;;;5030710;28;20036;-88
2021/12/26 10:39:17;;;;;;;2.90;0.50;;;-0.90;99.90;;;;;;5032528;28;20033;-86
2021/12/26 10:41:54;;;;;;;2.05;0.47;;;-0.90;99.90;;;;;;5049202;28;20078;-87
2021/12/26 10:44:36;;;;;;;1.92;0.43;;;-0.80;99.90;;;;;;5032289;28;20136;-87
2021/12/26 10:47:12;;;;;;;2.00;0.50;;;-0.60;99.90;;;;;;5048968;28;20032;-87
2021/12/26 10:49:52;;;;;;;2.63;0.50;;;-0.70;99.90;;;;;;5049046;28;20037;-88
2021/12/26 10:52:21;;;;;;;2.30;0.50;;;-0.60;99.90;;;;;;5048026;28;20025;-88
2021/12/26 10:54:53;;;;;;;1.92;0.80;;;-0.50;99.90;;;;;;5032327;28;20047;-87
2021/12/26 10:57:33;;;;;;;2.60;0.70;;;-0.40;99.90;;;;;;5048568;28;20033;-84
2021/12/26 11:00:19;;;;;;;1.92;0.60;;;-0.40;99.90;;;;;;5048282;28;20025;-87
2021/12/26 11:02:53;;;;;;;2.10;0.63;;;-0.30;99.90;;;;;;5048423;28;20099;-85
2021/12/26 11:05:25;;;;;;;2.53;0.60;;;-0.30;99.90;;;;;;5048258;28;20108;-86
2021/12/26 11:07:55;;;;;;;1.92;0.57;;;-0.30;99.90;;;;;;5032254;28;20025;-86
2021/12/26 11:10:23;;;;;;;2.47;0.70;;;-0.20;99.90;;;;;;5048473;28;20033;-87
2021/12/26 11:12:51;;;;;;;2.60;0.90;;;-0.20;99.90;;;;;;5066433;28;20025;-87
2021/12/26 11:15:19;;;;;;;2.58;0.60;;;0.00;99.90;;;;;;5048507;28;20101;-88
2021/12/26 11:18:04;;;;;;;2.15;0.60;;;0.00;99.90;;;;;;5048896;28;20028;-88
2021/12/26 11:20:55;;;;;;;1.50;0.50;;;0.10;99.90;;;;;;5048666;28;20033;-85
2021/12/26 11:23:24;;;;;;;;;;;0.10;99.90;;;;;;5027198;28;20036;-85
2021/12/26 11:25:53;;;;;;;2.83;0.70;;;0.10;99.90;;;;;;5031310;28;19908;-87
2021/12/26 11:28:26;;;;;;;2.38;0.60;;;0.20;99.90;;;;;;5048197;28;20094;-87
2021/12/26 11:31:01;;;;;;;2.72;0.60;;;0.30;99.90;;;;;;5047900;28;20029;-86
2021/12/26 11:33:27;;;;;;;2.42;0.57;;;0.30;99.90;;;;;;5048273;28;20044;-87
2021/12/26 11:35:55;;;;;;;1.75;0.50;;;0.30;99.90;;;;;;5048208;28;20098;-88
2021/12/26 11:38:23;;;;;;;4.05;0.75;;;0.30;99.90;;;;;;5043910;28;20466;-87
2021/12/26 11:41:20;;;;;;;1.95;0.55;;;0.40;99.90;;;;;;5023016;28;20155;-87
2021/12/26 11:45:10;;;;;;;4.45;0.70;;;0.40;99.90;;;;;;5009485;28;20057;-88
2021/12/26 11:48:28;;;;;;;2.45;0.60;;;0.60;99.90;;;;;;5045117;28;20037;-88
2021/12/26 11:51:19;;;;;;;2.38;0.60;;;0.70;99.90;;;;;;5016598;28;20095;-88
2021/12/26 11:54:22;;;;;;;2.45;0.70;;;0.70;99.90;;;;;;5030683;28;20088;-87
2021/12/26 11:57:11;;;;;;;2.80;0.70;;;0.80;99.90;;;;;;5011801;28;20037;-87
2021/12/26 12:00:06;;;;;;;2.58;0.90;;;0.70;99.90;;;;;;5012067;28;20073;-88
2021/12/26 12:02:47;;;;;;;2.65;0.80;;;0.70;99.90;;;;;;5031079;28;20067;-87
2021/12/26 12:05:40;;;;;;;5.72;1.98;;;0.60;99.90;;;;;;5038758;28;20482;-88
2021/12/26 12:08:12;;;;;;;2.47;0.77;;;0.40;99.90;;;;;;5008765;28;20034;-89
2021/12/26 12:10:44;;;;;;;4.03;1.00;;;0.40;99.90;;;;;;5008802;28;20038;-89
2021/12/26 12:13:35;;;;;;;3.85;0.80;;;0.40;99.90;;;;;;5008442;28;20040;-89
2021/12/26 12:16:28;;;;;;;3.70;1.05;;;0.30;99.90;;;;;;4959927;28;20087;-90
2021/12/26 12:18:58;;;;;;;2.83;0.80;;;0.20;99.90;;;;;;5002335;28;20045;-88
2021/12/26 12:21:33;;;;;;;2.30;0.75;;;0.20;99.90;;;;;;5026958;28;20029;-87
2021/12/26 12:24:22;;;;;;;3.10;0.70;;;0.20;99.90;;;;;;5024755;28;20057;-89
2021/12/26 12:26:56;;;;;;;3.33;0.70;;;0.30;99.90;;;;;;5034060;28;20026;-89
2021/12/26 12:29:24;;;;;;;2.45;0.80;;;0.30;99.90;;;;;;5020550;28;20042;-88
2021/12/26 12:32:08;;;;;;;2.78;0.80;;;0.40;99.90;;;;;;5037768;28;20113;-87
2021/12/26 12:34:56;;;;;;;3.72;0.98;;;0.40;99.90;;;;;;5011654;28;20030;-88
2021/12/26 12:37:41;;;;;;;3.80;0.90;;;0.60;99.90;;;;;;5013135;28;20033;-88
2021/12/26 12:40:17;;;;;;;3.17;0.80;;;0.60;99.90;;;;;;5032815;28;20132;-87
2021/12/26 12:43:02;;;;;;;3.30;0.90;;;0.60;99.90;;;;;;5025059;28;20512;-87
2021/12/26 12:45:28;;;;;;;2.30;0.70;;;0.70;99.90;;;;;;5014294;28;20042;-87
2021/12/26 12:48:22;;;;;;;3.40;1.15;;;0.70;99.90;;;;;;5028547;28;20056;-88
2021/12/26 12:50:58;;;;;;;5.32;1.00;;;0.70;99.90;;;;;;5003112;28;20052;-87
2021/12/26 12:53:40;;;;;;;3.63;1.02;;;0.70;99.90;;;;;;5006304;28;20083;-86
2021/12/26 12:56:35;;;;;;;2.88;1.02;;;0.70;99.90;;;;;;5026034;28;20044;-86
2021/12/26 12:59:17;;;;;;;2.83;0.98;;;0.80;99.90;;;;;;5022823;28;20026;-85
2021/12/26 13:01:47;;;;;;;3.05;0.80;;;0.80;99.90;;;;;;5022675;28;20072;-86
2021/12/26 13:04:20;;;;;;;2.65;0.88;;;0.90;99.90;;;;;;5022850;28;20446;-85
2021/12/26 13:06:54;;;;;;;4.05;1.00;;;0.80;99.90;;;;;;5024636;28;20037;-86
2021/12/26 13:09:21;;;;;;;2.88;1.00;;;0.80;99.90;;;;;;5026780;28;20056;-87
2021/12/26 13:11:48;;;;;;;4.13;1.33;;;0.90;99.90;;;;;;5027176;28;20052;-86
2021/12/26 13:14:37;;;;;;;2.83;0.80;;;0.90;99.90;;;;;;5027121;28;20111;-87